Time;durP1;ratioP1;P1;durP2;ratioP2;P2;SDS_P1;SDS_P2;PMS_P1;PMS_P2;Temp;Humidity;BMP_temperature;BMP_pressure;BME280_temperature;BME280_humidity;BME280_pressure;Samples;Min_cycle;Max_cycle;Signal;HPM_P1;HPM_P2
2023/06/14 00:00:22;;;;;;;6.55;4.30;;;;;;;17.04;51.17;99373.47;12250709;19;20036;-85
2023/06/14 00:04:25;;;;;;;6.95;4.10;;;;;;;16.99;51.86;99373.56;12249372;19;20026;-84
2023/06/14 00:08:28;;;;;;;;;;;;;;;16.94;51.80;99368.09;12243435;19;20018;-84
2023/06/14 00:12:29;;;;;;;6.75;4.30;;;;;;;16.90;51.80;99365.09;12245725;19;19937;-84
2023/06/14 00:16:33;;;;;;;6.70;3.95;;;;;;;16.89;52.18;99365.38;12245796;19;20014;-84
2023/06/14 00:20:35;;;;;;;6.85;4.95;;;;;;;16.87;52.11;99367.66;12241337;19;20011;-84
2023/06/14 00:24:36;;;;;;;8.00;4.03;;;;;;;16.83;52.34;99368.22;12244340;19;20046;-84
2023/06/14 00:28:38;;;;;;;8.13;4.30;;;;;;;16.79;52.81;99363.59;12240011;19;20010;-85
2023/06/14 00:32:42;;;;;;;6.20;3.87;;;;;;;16.78;53.59;99364.72;12243342;19;20077;-84
2023/06/14 00:36:44;;;;;;;7.38;4.00;;;;;;;16.77;53.26;99358.31;12237862;19;20006;-85
2023/06/14 00:40:48;;;;;;;5.13;4.05;;;;;;;16.75;53.47;99363.34;12242291;19;20015;-84
2023/06/14 00:44:51;;;;;;;7.40;4.93;;;;;;;16.73;53.75;99373.09;12241501;19;20027;-84
2023/06/14 00:48:55;;;;;;;6.20;4.40;;;;;;;16.70;53.35;99354.22;12238753;19;20028;-84
2023/06/14 00:52:57;;;;;;;7.97;4.50;;;;;;;16.67;53.36;99364.00;12239673;19;20006;-84
2023/06/14 00:56:59;;;;;;;6.57;4.37;;;;;;;16.65;52.84;99366.25;12234663;19;20018;-84
2023/06/14 01:01:02;;;;;;;8.88;4.35;;;;;;;16.63;52.59;99363.78;12242754;19;20631;-84
2023/06/14 01:05:06;;;;;;;6.65;4.75;;;;;;;16.60;52.45;99361.59;12242919;19;20014;-82
2023/06/14 01:09:33;;;;;;;6.82;4.70;;;;;;;16.57;53.62;99369.72;12244634;19;20006;-84
2023/06/14 01:13:40;;;;;;;8.80;4.68;;;;;;;16.53;54.05;99363.91;12239123;19;20015;-84
2023/06/14 01:17:45;;;;;;;7.90;4.75;;;;;;;16.51;54.17;99370.91;12237354;19;20027;-84
2023/06/14 01:21:50;;;;;;;9.07;5.40;;;;;;;16.47;53.80;99375.41;12243069;19;20021;-83
2023/06/14 01:25:52;;;;;;;9.40;4.97;;;;;;;16.51;52.76;99370.91;12237653;19;20020;-84
2023/06/14 01:30:00;;;;;;;8.97;5.60;;;;;;;16.51;52.11;99376.47;12220288;19;20074;-84
2023/06/14 01:34:05;;;;;;;9.55;4.93;;;;;;;16.48;52.71;99372.34;12237917;19;20018;-85
2023/06/14 01:38:08;;;;;;;6.40;4.65;;;;;;;16.46;53.30;99382.13;12235373;19;20022;-85
2023/06/14 01:42:13;;;;;;;7.10;4.68;;;;;;;16.45;52.85;99372.09;12237101;19;20006;-84
2023/06/14 01:46:26;;;;;;;6.55;4.80;;;;;;;16.45;52.75;99369.31;12236059;19;20086;-85
2023/06/14 01:50:30;;;;;;;12.53;5.30;;;;;;;16.40;52.50;99375.81;12236690;19;20010;-84
2023/06/14 01:54:31;;;;;;;8.50;5.05;;;;;;;16.36;52.68;99372.78;12235079;19;20014;-83
2023/06/14 01:58:33;;;;;;;8.93;5.55;;;;;;;16.33;52.50;99373.41;12231268;19;20019;-83
2023/06/14 02:02:35;;;;;;;9.18;4.93;;;;;;;16.32;52.34;99371.72;12239106;19;20022;-81
2023/06/14 02:06:37;;;;;;;8.13;4.60;;;;;;;16.28;52.82;99362.34;12236278;19;20027;-82
2023/06/14 02:10:39;;;;;;;8.53;5.33;;;;;;;16.27;52.65;99368.19;12254340;19;20015;-82
2023/06/14 02:14:41;;;;;;;8.67;5.30;;;;;;;16.27;52.41;99371.81;12272867;19;20014;-84
2023/06/14 02:18:43;;;;;;;6.93;4.82;;;;;;;16.26;52.32;99381.25;12238500;19;20014;-82
2023/06/14 02:22:45;;;;;;;8.98;4.95;;;;;;;16.21;52.31;99377.72;12237040;19;20020;-83
2023/06/14 02:26:47;;;;;;;8.27;5.15;;;;;;;16.15;52.43;99385.28;12239642;19;20014;-81
2023/06/14 02:30:49;;;;;;;7.90;5.10;;;;;;;16.14;52.96;99380.84;12239457;19;20019;-82
2023/06/14 02:34:51;;;;;;;8.35;5.15;;;;;;;16.09;52.83;99380.91;12237170;19;20006;-82
2023/06/14 02:38:54;;;;;;;9.23;4.38;;;;;;;16.02;53.09;99384.06;12246724;19;20010;-83
2023/06/14 02:42:55;;;;;;;7.05;5.18;;;;;;;15.99;53.05;99386.59;12246012;19;20024;-83
2023/06/14 02:46:58;;;;;;;9.85;5.30;;;;;;;15.92;53.86;99384.19;12238737;19;20011;-83
2023/06/14 02:51:00;;;;;;;;;;;;;;;15.87;54.31;99384.25;12248364;19;20018;-83
2023/06/14 02:55:02;;;;;;;8.30;4.82;;;;;;;15.81;54.12;99375.13;12247233;19;19919;-84
2023/06/14 02:59:03;;;;;;;7.80;5.05;;;;;;;15.76;55.33;99389.06;12240560;19;20063;-84
2023/06/14 03:03:13;;;;;;;8.18;4.72;;;;;;;15.71;55.72;99391.94;12240058;19;20078;-83
2023/06/14 03:07:19;;;;;;;6.78;4.90;;;;;;;15.63;55.89;99395.31;12240146;19;20017;-83
2023/06/14 03:11:25;;;;;;;8.25;4.90;;;;;;;15.57;56.06;99396.47;12246577;19;20003;-83
2023/06/14 03:15:27;;;;;;;7.50;4.60;;;;;;;15.56;55.60;99397.63;12242992;19;20010;-84
2023/06/14 03:19:29;;;;;;;6.95;4.38;;;;;;;15.53;55.46;99399.03;12237770;19;20023;-84
2023/06/14 03:23:31;;;;;;;6.82;4.60;;;;;;;15.56;55.84;99405.94;12242456;19;20014;-83
2023/06/14 03:27:33;;;;;;;11.10;5.70;;;;;;;15.58;56.08;99410.06;12237517;19;20365;-82
2023/06/14 03:31:36;;;;;;;6.60;4.88;;;;;;;15.58;56.43;99414.78;12239217;19;20042;-83
2023/06/14 03:35:41;;;;;;;9.00;5.05;;;;;;;15.59;56.50;99422.84;12245677;19;20014;-82
2023/06/14 03:39:46;;;;;;;7.50;4.93;;;;;;;15.58;56.68;99423.94;12265263;19;20010;-82
2023/06/14 03:43:53;;;;;;;8.55;5.18;;;;;;;15.58;56.67;99425.91;12258881;19;20011;-83
2023/06/14 03:47:56;;;;;;;6.68;4.85;;;;;;;15.54;56.45;99428.44;12249764;19;20006;-85
2023/06/14 03:51:59;;;;;;;;;;;;;;;15.52;57.09;99449.28;12254586;19;20015;-82
2023/06/14 03:56:01;;;;;;;11.63;5.22;;;;;;;15.48;57.37;99452.63;12251345;19;20018;-83
2023/06/14 04:00:13;;;;;;;7.70;4.75;;;;;;;15.49;56.89;99461.78;12252103;19;20019;-82
2023/06/14 04:04:18;;;;;;;10.05;5.10;;;;;;;15.46;57.73;99465.16;12248639;19;20035;-83
2023/06/14 04:08:22;;;;;;;7.57;4.50;;;;;;;15.43;58.27;99461.00;12249507;19;20007;-83
2023/06/14 04:12:25;;;;;;;11.52;4.55;;;;;;;15.37;58.70;99461.34;12256270;19;20020;-85
2023/06/14 04:16:27;;;;;;;11.67;5.87;;;;;;;15.33;58.80;99466.66;12250838;19;20006;-83
2023/06/14 04:20:30;;;;;;;;;;;;;;;15.25;59.82;99470.03;12248736;19;20282;-82
2023/06/14 04:24:32;;;;;;;7.80;4.97;;;;;;;15.24;59.28;99471.16;12250269;19;19911;-83
2023/06/14 04:28:37;;;;;;;6.83;4.23;;;;;;;15.23;60.14;99477.84;12246612;19;20010;-83
2023/06/14 04:32:39;;;;;;;7.60;4.80;;;;;;;15.22;60.00;99474.22;12246006;19;20022;-84
2023/06/14 04:36:53;;;;;;;6.78;5.53;;;;;;;15.20;60.52;99486.72;12246057;19;20002;-83
2023/06/14 04:41:01;;;;;;;8.57;4.95;;;;;;;15.18;60.75;99495.34;12249336;19;20015;-84
2023/06/14 04:45:04;;;;;;;10.60;5.22;;;;;;;15.16;61.75;99491.19;12245819;19;20010;-83
2023/06/14 04:49:06;;;;;;;6.65;4.55;;;;;;;15.18;61.14;99494.53;12247469;19;20028;-84
2023/06/14 04:53:08;;;;;;;7.30;5.07;;;;;;;15.19;61.54;99499.78;12248379;19;20014;-83
2023/06/14 04:57:13;;;;;;;7.70;4.50;;;;;;;15.20;61.83;99498.69;12247271;19;20013;-83
2023/06/14 05:01:16;;;;;;;8.95;5.00;;;;;;;15.24;62.64;99512.81;12248888;19;20500;-83
2023/06/14 05:05:20;;;;;;;8.90;4.53;;;;;;;15.25;62.21;99522.78;12244486;19;20014;-83
2023/06/14 05:09:23;;;;;;;8.15;4.45;;;;;;;15.28;62.32;99511.09;12250187;19;20014;-83
2023/06/14 05:13:27;;;;;;;9.60;4.75;;;;;;;15.34;62.51;99518.28;12250310;19;20007;-82
2023/06/14 05:17:30;;;;;;;10.18;4.65;;;;;;;15.38;63.22;99519.38;12248979;19;20002;-83
2023/06/14 05:21:33;;;;;;;9.55;5.53;;;;;;;15.41;63.75;99521.56;12262168;19;20046;-83
2023/06/14 05:25:43;;;;;;;8.50;4.68;;;;;;;15.44;64.30;99521.00;12259137;19;20022;-83
2023/06/14 05:29:45;;;;;;;7.55;4.78;;;;;;;15.49;64.69;99531.22;12256340;19;20353;-84
2023/06/14 05:33:48;;;;;;;8.95;4.65;;;;;;;15.56;66.23;99523.41;12254716;19;20492;-83
2023/06/14 05:37:50;;;;;;;7.68;4.53;;;;;;;15.63;66.13;99528.63;12203673;19;20015;-82
2023/06/14 05:41:52;;;;;;;8.55;4.35;;;;;;;15.72;66.46;99538.00;12219871;19;21639;-81
2023/06/14 05:45:54;;;;;;;9.00;5.00;;;;;;;15.82;66.83;99546.25;12200701;19;20480;-82
2023/06/14 05:49:57;;;;;;;8.68;4.90;;;;;;;15.89;66.31;99549.53;12236036;19;20015;-80
2023/06/14 05:53:58;;;;;;;7.78;4.30;;;;;;;16.00;66.80;99550.25;12267056;19;20021;-80
2023/06/14 05:58:02;;;;;;;6.82;4.78;;;;;;;16.11;66.03;99557.38;12243123;19;20010;-81
2023/06/14 06:02:06;;;;;;;8.65;4.88;;;;;;;16.26;66.32;99553.63;12245819;19;20022;-80
2023/06/14 06:06:09;;;;;;;6.20;4.30;;;;;;;16.36;66.28;99558.28;12240730;19;20011;-80
2023/06/14 06:10:12;;;;;;;9.85;5.07;;;;;;;16.51;65.33;99554.47;12243398;19;20015;-80
2023/06/14 06:14:15;;;;;;;11.10;5.22;;;;;;;16.71;64.36;99550.63;12240341;19;20035;-81
2023/06/14 06:18:17;;;;;;;6.90;4.45;;;;;;;16.88;63.57;99558.53;12241741;19;20014;-83
2023/06/14 06:22:19;;;;;;;7.27;4.13;;;;;;;17.06;62.60;99552.16;12239893;19;20024;-83
2023/06/14 06:26:22;;;;;;;8.65;4.32;;;;;;;17.20;61.32;99563.41;12240758;19;20011;-81
2023/06/14 06:30:26;;;;;;;7.32;4.10;;;;;;;17.36;60.64;99564.81;12242371;19;20027;-82
2023/06/14 06:34:28;;;;;;;9.85;4.25;;;;;;;17.57;59.68;99575.66;12238232;19;20007;-81
2023/06/14 06:38:30;;;;;;;10.55;4.15;;;;;;;17.76;59.20;99573.69;12234693;19;20362;-80
2023/06/14 06:42:33;;;;;;;9.13;4.65;;;;;;;17.94;58.18;99574.81;12231285;19;20026;-79
2023/06/14 06:46:40;;;;;;;8.30;4.60;;;;;;;18.15;57.77;99575.31;12231502;19;20429;-79
2023/06/14 06:50:42;;;;;;;8.30;4.05;;;;;;;18.33;56.30;99566.03;12229382;19;20037;-80
2023/06/14 06:54:45;;;;;;;6.60;3.70;;;;;;;18.49;55.46;99574.13;12235819;19;20015;-80
2023/06/14 06:58:47;;;;;;;7.80;4.50;;;;;;;18.64;54.74;99583.00;12228036;19;20028;-80
2023/06/14 07:02:50;;;;;;;7.97;4.22;;;;;;;18.78;55.14;99587.81;12233891;19;20018;-80
2023/06/14 07:06:59;;;;;;;5.85;4.05;;;;;;;19.04;53.09;99582.53;12233729;19;20010;-79
2023/06/14 07:11:03;;;;;;;10.68;4.13;;;;;;;19.18;53.20;99590.88;12244225;19;20030;-79
2023/06/14 07:15:10;;;;;;;6.78;4.07;;;;;;;19.36;51.90;99592.72;12246742;19;20014;-80
2023/06/14 07:19:13;;;;;;;6.22;3.45;;;;;;;19.48;51.06;99595.81;12242919;19;20018;-79
2023/06/14 07:23:15;;;;;;;9.27;4.17;;;;;;;19.55;51.12;99593.41;12242596;19;20442;-79
2023/06/14 07:27:18;;;;;;;8.05;4.45;;;;;;;19.69;50.71;99600.94;12243082;19;20253;-79
2023/06/14 07:31:21;;;;;;;8.13;4.85;;;;;;;19.90;50.30;99596.53;12244695;19;20022;-79
2023/06/14 07:35:23;;;;;;;6.67;3.73;;;;;;;20.09;50.05;99595.50;12242041;19;20330;-77
2023/06/14 07:39:26;;;;;;;6.22;3.83;;;;;;;20.38;48.29;99590.25;12242323;19;20021;-78
2023/06/14 07:43:28;;;;;;;7.80;3.67;;;;;;;20.58;48.36;99596.47;12245004;19;20345;-78
2023/06/14 07:47:31;;;;;;;6.75;3.88;;;;;;;20.76;47.89;99602.97;12241734;19;20007;-79
2023/06/14 07:51:35;;;;;;;6.38;3.33;;;;;;;21.02;47.20;99606.69;12246019;19;20620;-79
2023/06/14 07:55:37;;;;;;;5.70;3.20;;;;;;;21.23;45.51;99612.53;12235488;19;20010;-78
2023/06/14 07:59:54;;;;;;;6.15;3.70;;;;;;;21.52;44.94;99605.53;12238849;19;20443;-82
2023/06/14 08:03:59;;;;;;;7.13;3.30;;;;;;;21.57;44.15;99599.78;12249525;19;20119;-80
2023/06/14 08:08:02;;;;;;;6.25;3.70;;;;;;;21.75;43.36;99607.03;12248196;19;20788;-80
2023/06/14 08:12:12;;;;;;;7.97;3.30;;;;;;;22.00;42.76;99607.38;12249440;19;20021;-80
2023/06/14 08:16:14;;;;;;;4.82;3.22;;;;;;;22.07;42.65;99611.34;12243070;19;20471;-82
2023/06/14 08:20:16;;;;;;;7.27;2.97;;;;;;;22.24;42.40;99610.50;12246237;19;20014;-81
2023/06/14 08:24:24;;;;;;;6.65;3.25;;;;;;;22.33;41.26;99612.47;12245859;19;20262;-81
2023/06/14 08:28:26;;;;;;;4.13;3.10;;;;;;;22.48;41.73;99611.94;12242242;19;20471;-81
2023/06/14 08:32:29;;;;;;;;;;;;;;;22.70;41.48;99600.47;12248229;19;20011;-81
2023/06/14 08:36:31;;;;;;;6.77;2.70;;;;;;;22.81;39.70;99605.72;12241582;19;20238;-80
2023/06/14 08:40:37;;;;;;;5.47;3.20;;;;;;;22.83;39.99;99606.22;12241859;19;20018;-81
2023/06/14 08:44:40;;;;;;;4.97;3.05;;;;;;;22.88;38.96;99601.22;12242355;19;20540;-82
2023/06/14 08:48:43;;;;;;;6.03;3.20;;;;;;;23.08;39.25;99608.13;12245854;19;20017;-82
2023/06/14 08:52:49;;;;;;;8.40;3.25;;;;;;;23.30;38.57;99607.00;12245364;19;20425;-82
2023/06/14 08:56:57;;;;;;;13.63;3.35;;;;;;;23.46;38.78;99609.22;12241864;19;20375;-83
2023/06/14 09:01:01;;;;;;;8.60;2.78;;;;;;;23.57;38.79;99610.47;12241348;19;20027;-80
2023/06/14 09:05:04;;;;;;;5.28;2.58;;;;;;;23.77;37.27;99609.69;12244495;19;20082;-82
2023/06/14 09:09:07;;;;;;;4.57;2.97;;;;;;;23.88;37.55;99607.25;12247785;19;20038;-83
2023/06/14 09:13:09;;;;;;;6.70;2.60;;;;;;;23.95;37.23;99601.09;12244537;19;20003;-82
2023/06/14 09:17:13;;;;;;;3.55;2.17;;;;;;;23.96;37.17;99606.38;12245819;19;20272;-83
2023/06/14 09:21:20;;;;;;;5.80;2.28;;;;;;;24.13;36.17;99615.84;12244512;19;20034;-81
2023/06/14 09:25:23;;;;;;;8.27;3.30;;;;;;;24.32;36.28;99624.56;12243593;19;20589;-84
2023/06/14 09:29:40;;;;;;;3.53;2.50;;;;;;;24.62;35.76;99621.66;12241971;19;20023;-84
2023/06/14 09:33:47;;;;;;;4.28;2.78;;;;;;;24.24;36.47;99617.03;12242233;19;20014;-85
2023/06/14 09:37:51;;;;;;;4.50;2.25;;;;;;;24.13;35.98;99621.47;12241607;19;20017;-83
2023/06/14 09:41:53;;;;;;;6.90;2.77;;;;;;;24.44;35.34;99638.72;12240996;19;20010;-82
2023/06/14 09:46:04;;;;;;;4.35;2.03;;;;;;;25.01;33.49;99623.81;12241495;19;20017;-83
2023/06/14 09:50:06;;;;;;;4.93;2.08;;;;;;;25.23;33.87;99630.22;12244866;19;20014;-84
2023/06/14 09:54:15;;;;;;;5.80;2.47;;;;;;;24.72;34.68;99638.13;12241432;19;20017;-85
2023/06/14 09:58:20;;;;;;;3.45;2.03;;;;;;;24.78;34.71;99637.53;12238298;19;20022;-82
2023/06/14 10:02:32;;;;;;;3.50;2.30;;;;;;;25.37;34.15;99625.03;12240241;19;20020;-85
2023/06/14 10:06:40;;;;;;;4.55;2.10;;;;;;;25.70;33.94;99618.41;12238135;19;20018;-84
2023/06/14 10:10:43;;;;;;;3.33;2.28;;;;;;;25.28;33.71;99621.50;12242874;19;20118;-85
2023/06/14 10:14:45;;;;;;;7.60;2.53;;;;;;;24.83;34.43;99616.75;12243892;19;20014;-83
2023/06/14 10:19:06;;;;;;;4.97;2.72;;;;;;;24.86;34.76;99613.22;12237664;19;20007;-85
2023/06/14 10:23:29;;;;;;;3.33;2.20;;;;;;;25.33;33.33;99618.44;12243477;19;20013;-84
2023/06/14 10:27:31;;;;;;;5.57;2.30;;;;;;;25.29;33.55;99617.50;12238989;19;20011;-85
2023/06/14 10:31:44;;;;;;;5.30;2.08;;;;;;;25.74;32.11;99616.50;12241022;19;20026;-81
2023/06/14 10:35:46;;;;;;;3.42;2.08;;;;;;;25.57;32.66;99623.22;12236961;19;20468;-84
2023/06/14 10:39:50;;;;;;;4.75;2.05;;;;;;;25.61;33.15;99623.34;12236379;19;20007;-84
2023/06/14 10:44:12;;;;;;;6.10;2.30;;;;;;;26.12;31.74;99616.06;12240563;19;20072;-84
2023/06/14 10:48:29;;;;;;;8.65;2.25;;;;;;;26.14;31.50;99616.50;12247326;19;20369;-83
2023/06/14 10:52:38;;;;;;;4.40;2.08;;;;;;;25.24;32.52;99614.94;12251614;19;20015;-84
2023/06/14 10:56:51;;;;;;;2.80;2.05;;;;;;;24.79;33.08;99616.63;12253430;19;20010;-84
2023/06/14 11:00:54;;;;;;;3.00;1.85;;;;;;;24.61;33.17;99631.28;12251119;19;20811;-83
2023/06/14 11:05:05;;;;;;;6.35;2.00;;;;;;;24.64;32.83;99630.59;12258051;19;20007;-84
2023/06/14 11:09:45;;;;;;;4.13;2.03;;;;;;;24.49;33.83;99632.88;12254490;19;20050;-84
2023/06/14 11:13:47;;;;;;;5.45;1.90;;;;;;;25.11;32.62;99621.72;12254997;19;20375;-82
2023/06/14 11:17:53;;;;;;;2.80;2.10;;;;;;;25.52;31.76;99619.81;12250211;19;20079;-83
2023/06/14 11:21:55;;;;;;;4.82;2.10;;;;;;;26.30;31.44;99622.22;12250755;19;20011;-85
2023/06/14 11:25:56;;;;;;;4.45;2.13;;;;;;;26.92;30.06;99624.69;12247922;19;20421;-86
2023/06/14 11:30:02;;;;;;;6.68;2.30;;;;;;;26.51;30.43;99616.38;12247332;19;20014;-84
2023/06/14 11:34:06;;;;;;;3.67;2.47;;;;;;;26.05;30.94;99621.50;12247630;19;20022;-86
2023/06/14 11:38:10;;;;;;;6.57;2.15;;;;;;;25.76;31.53;99627.41;12248571;19;20014;-85
2023/06/14 11:42:16;;;;;;;4.53;2.50;;;;;;;25.75;32.09;99623.78;12255677;19;20014;-85
2023/06/14 11:46:23;;;;;;;4.32;2.38;;;;;;;25.88;31.60;99625.44;12252837;19;19999;-86
2023/06/14 11:50:27;;;;;;;5.28;2.33;;;;;;;25.83;32.21;99622.03;12246443;19;20362;-85
2023/06/14 11:54:32;;;;;;;8.57;2.70;;;;;;;26.91;31.12;99617.41;12245490;19;20469;-83
2023/06/14 11:58:36;;;;;;;4.97;2.60;;;;;;;27.37;29.46;99620.63;12240245;19;20763;-84
2023/06/14 12:02:40;;;;;;;3.58;2.60;;;;;;;26.89;29.83;99619.78;12240141;19;20018;-87
2023/06/14 12:06:43;;;;;;;4.47;2.50;;;;;;;26.64;30.73;99628.44;12249490;19;20025;-86
2023/06/14 12:10:51;;;;;;;6.88;2.63;;;;;;;26.39;30.79;99624.06;12248546;19;20022;-86
2023/06/14 12:14:57;;;;;;;5.43;2.65;;;;;;;26.23;31.51;99624.81;12249785;19;20007;-85
2023/06/14 12:19:10;;;;;;;6.07;3.20;;;;;;;26.78;30.83;99613.88;12259215;19;20007;-86
2023/06/14 12:23:12;;;;;;;5.70;2.85;;;;;;;28.89;28.79;99612.91;12244557;19;20021;-84
2023/06/14 12:27:15;;;;;;;6.03;2.97;;;;;;;30.32;27.26;99606.56;12244874;19;20748;-85
2023/06/14 12:31:18;;;;;;;5.40;3.22;;;;;;;31.63;25.32;99613.88;12245589;19;20020;-85
2023/06/14 12:35:21;;;;;;;6.07;3.10;;;;;;;32.48;24.06;99606.97;12248108;19;20018;-85
2023/06/14 12:39:24;;;;;;;3.50;2.95;;;;;;;32.58;23.61;99620.47;12239939;19;20014;-83
2023/06/14 12:43:27;;;;;;;7.55;3.08;;;;;;;30.96;24.86;99609.25;12240565;19;20018;-87
2023/06/14 12:47:31;;;;;;;6.00;3.17;;;;;;;29.84;26.05;99616.88;12244644;19;20013;-85
2023/06/14 12:51:32;;;;;;;4.63;3.10;;;;;;;29.05;27.16;99619.28;12240937;19;20019;-86
2023/06/14 12:55:37;;;;;;;5.38;3.00;;;;;;;28.25;27.38;99620.97;12244557;19;20026;-85
2023/06/14 12:59:39;;;;;;;13.15;3.53;;;;;;;27.75;28.15;99619.88;12238553;19;20034;-85
2023/06/14 13:03:42;;;;;;;8.90;4.03;;;;;;;29.11;27.42;99624.66;12239222;19;20011;-85
2023/06/14 13:07:44;;;;;;;5.88;2.95;;;;;;;29.52;26.33;99617.19;12242681;19;20018;-88
2023/06/14 13:11:48;;;;;;;4.22;2.88;;;;;;;30.40;25.54;99621.66;12275279;19;20017;-84
2023/06/14 13:15:50;;;;;;;5.07;2.63;;;;;;;31.41;24.39;99617.78;12266243;19;20017;-86
2023/06/14 13:19:53;;;;;;;8.25;3.22;;;;;;;33.17;23.75;99613.63;12254820;19;20483;-86
2023/06/14 13:23:55;;;;;;;6.47;3.17;;;;;;;34.37;21.62;99605.19;12246421;19;20592;-85
2023/06/14 13:27:57;;;;;;;5.35;4.10;;;;;;;32.96;22.34;99605.84;12243153;19;20003;-86
2023/06/14 13:32:00;;;;;;;3.67;2.92;;;;;;;32.85;22.73;99603.00;12243266;19;20006;-84
2023/06/14 13:36:04;;;;;;;7.88;3.33;;;;;;;34.63;21.19;99596.09;12244364;19;20026;-87
2023/06/14 13:40:08;;;;;;;5.55;3.25;;;;;;;35.06;20.57;99601.50;12243075;19;20007;-86
2023/06/14 13:44:14;;;;;;;5.10;3.40;;;;;;;33.11;21.82;99596.91;12245073;19;20015;-85
2023/06/14 13:48:18;;;;;;;3.75;3.35;;;;;;;31.21;23.46;99609.50;12238084;19;20030;-84
2023/06/14 13:52:20;;;;;;;32.85;5.85;;;;;;;31.89;23.59;99600.59;12239742;19;20138;-86
2023/06/14 13:56:24;;;;;;;4.20;3.03;;;;;;;34.26;21.06;99594.63;12235787;19;20010;-86
2023/06/14 14:00:28;;;;;;;5.47;3.28;;;;;;;36.58;19.25;99590.84;12235973;19;20590;-87
2023/06/14 14:04:30;;;;;;;6.68;3.92;;;;;;;37.79;17.99;99590.06;12233980;19;20021;-86
2023/06/14 14:08:32;;;;;;;4.03;3.40;;;;;;;38.37;17.75;99589.69;12238156;19;20006;-87
2023/06/14 14:12:34;;;;;;;5.22;2.92;;;;;;;38.95;17.63;99593.72;12242522;19;20006;-84
2023/06/14 14:16:36;;;;;;;6.07;3.35;;;;;;;40.00;16.56;99583.94;12240303;19;20021;-85
2023/06/14 14:20:41;;;;;;;5.03;3.30;;;;;;;40.49;15.31;99572.19;12236035;19;20007;-83
2023/06/14 14:24:42;;;;;;;3.85;3.20;;;;;;;40.23;15.19;99577.09;12245590;19;20003;-85
2023/06/14 14:28:44;;;;;;;5.55;3.33;;;;;;;40.36;14.90;99567.66;12235214;19;20029;-86
2023/06/14 14:32:50;;;;;;;5.68;3.20;;;;;;;41.08;14.63;99572.78;12238373;19;20015;-86
2023/06/14 14:36:52;;;;;;;7.18;3.47;;;;;;;40.89;15.21;99573.81;12237125;19;20021;-85
2023/06/14 14:40:55;;;;;;;12.32;3.67;;;;;;;37.76;16.29;99577.38;12235359;19;20468;-85
2023/06/14 14:44:56;;;;;;;31.42;5.78;;;;;;;34.77;19.28;99582.91;12232831;19;20484;-83
2023/06/14 14:49:00;;;;;;;6.57;3.33;;;;;;;32.51;20.85;99585.41;12228802;19;20553;-86
2023/06/14 14:53:02;;;;;;;4.57;2.83;;;;;;;31.19;22.26;99591.97;12235342;19;20003;-85
2023/06/14 14:57:04;;;;;;;5.13;3.25;;;;;;;30.33;23.41;99587.47;12233599;19;20126;-87
2023/06/14 15:01:08;;;;;;;5.35;2.72;;;;;;;30.38;23.53;99582.25;12231707;19;20003;-86
2023/06/14 15:05:11;;;;;;;5.75;2.92;;;;;;;30.99;22.81;99580.03;12225844;19;20657;-84
2023/06/14 15:09:13;;;;;;;;;;;;;;;31.91;21.61;99572.53;12230698;19;20485;-84
2023/06/14 15:13:18;;;;;;;4.95;2.80;;;;;;;32.98;20.54;99572.84;12231582;19;19978;-86
2023/06/14 15:17:24;;;;;;;4.38;3.20;;;;;;;34.72;19.81;99575.59;12227098;19;20028;-86
2023/06/14 15:21:28;;;;;;;6.53;3.35;;;;;;;35.02;19.29;99574.13;12226366;19;20003;-88
2023/06/14 15:25:32;;;;;;;5.85;3.42;;;;;;;33.45;20.38;99582.19;12228359;19;20014;-87
2023/06/14 15:29:34;;;;;;;16.08;3.83;;;;;;;31.82;20.84;99574.91;12232516;19;20074;-82
2023/06/14 15:33:36;;;;;;;5.72;2.97;;;;;;;30.49;22.25;99570.19;12242103;19;20010;-85
2023/06/14 15:37:39;;;;;;;6.60;2.95;;;;;;;29.30;23.95;99568.63;12237196;19;20430;-84
2023/06/14 15:41:41;;;;;;;;;;;;;;;28.57;24.16;99579.13;12244235;19;20851;-85
2023/06/14 15:45:44;;;;;;;9.90;2.60;;;;;;;28.37;24.24;99566.16;12244189;19;19933;-84
2023/06/14 15:49:48;;;;;;;9.27;3.10;;;;;;;28.30;24.57;99564.00;12248140;19;20021;-85
2023/06/14 15:53:50;;;;;;;4.25;2.25;;;;;;;28.76;25.02;99574.59;12248826;19;19998;-84
2023/06/14 15:57:52;;;;;;;2.75;2.00;;;;;;;28.56;25.02;99569.00;12245093;19;20305;-84
2023/06/14 16:01:54;;;;;;;6.38;4.07;;;;;;;28.07;25.39;99563.13;12246202;19;20006;-83
2023/06/14 16:05:56;;;;;;;6.10;2.45;;;;;;;27.17;26.15;99569.63;12241375;19;20026;-82
2023/06/14 16:09:57;;;;;;;2.88;1.98;;;;;;;26.46;26.85;99559.28;12245149;19;20011;-82
2023/06/14 16:13:59;;;;;;;2.83;2.03;;;;;;;26.26;27.16;99563.97;12242984;19;20356;-83
2023/06/14 16:18:01;;;;;;;8.05;2.88;;;;;;;26.23;27.23;99553.41;12244269;19;20024;-85
2023/06/14 16:22:04;;;;;;;4.60;2.80;;;;;;;26.28;26.90;99555.97;12247390;19;20015;-85
2023/06/14 16:26:13;;;;;;;5.60;2.60;;;;;;;26.38;27.15;99546.97;12240526;19;20016;-85
2023/06/14 16:30:16;;;;;;;6.03;2.47;;;;;;;26.13;27.39;99554.75;12244386;19;20011;-83
2023/06/14 16:34:18;;;;;;;5.18;2.33;;;;;;;26.02;27.40;99551.63;12245851;19;20015;-85
2023/06/14 16:38:21;;;;;;;5.22;2.38;;;;;;;26.08;27.57;99552.19;12240476;19;20044;-86
2023/06/14 16:42:24;;;;;;;4.15;2.75;;;;;;;26.44;27.87;99556.81;12240897;19;20025;-85
2023/06/14 16:46:31;;;;;;;9.68;2.55;;;;;;;26.55;27.90;99557.94;12237721;19;20015;-86
2023/06/14 16:50:34;;;;;;;3.97;2.08;;;;;;;26.49;28.17;99561.38;12238612;19;20445;-86
2023/06/14 16:54:38;;;;;;;7.05;2.10;;;;;;;26.27;28.34;99574.94;12242052;19;20014;-85
2023/06/14 16:58:40;;;;;;;4.47;2.00;;;;;;;26.00;29.05;99575.75;12236613;19;20067;-85
2023/06/14 17:02:43;;;;;;;4.90;2.10;;;;;;;25.75;29.13;99581.44;12274437;19;20024;-82
2023/06/14 17:06:45;;;;;;;3.53;2.50;;;;;;;25.53;29.96;99584.81;12254280;19;20003;-84
2023/06/14 17:10:47;;;;;;;6.10;2.22;;;;;;;25.15;30.25;99584.03;12250383;19;20049;-83
2023/06/14 17:14:50;;;;;;;4.72;2.22;;;;;;;24.82;30.82;99589.75;12245094;19;20011;-84
2023/06/14 17:18:53;;;;;;;5.13;1.88;;;;;;;24.48;31.67;99594.63;12242204;19;20018;-83
2023/06/14 17:22:57;;;;;;;3.53;2.22;;;;;;;24.28;31.71;99595.47;12243929;19;20354;-83
2023/06/14 17:27:00;;;;;;;5.75;2.30;;;;;;;24.24;31.51;99595.34;12243810;19;20010;-84
2023/06/14 17:31:02;;;;;;;4.93;2.20;;;;;;;24.31;31.55;99597.59;12242549;19;20011;-83
2023/06/14 17:35:05;;;;;;;5.13;2.35;;;;;;;24.22;32.68;99602.50;12240167;19;20009;-85
2023/06/14 17:39:08;;;;;;;3.90;2.25;;;;;;;24.17;32.96;99599.88;12241163;19;20015;-85
2023/06/14 17:43:10;;;;;;;4.93;2.58;;;;;;;24.12;33.05;99603.72;12236704;19;20006;-87
2023/06/14 17:47:13;;;;;;;4.10;2.35;;;;;;;24.10;33.35;99611.72;12242586;19;20027;-83
2023/06/14 17:51:35;;;;;;;7.47;2.55;;;;;;;24.21;32.77;99609.28;12247083;19;20014;-84
2023/06/14 17:55:37;;;;;;;4.75;2.20;;;;;;;24.37;32.94;99624.38;12249329;19;20002;-85
2023/06/14 17:59:43;;;;;;;4.35;2.40;;;;;;;24.58;32.74;99621.53;12239606;19;20052;-84
2023/06/14 18:03:45;;;;;;;6.82;2.30;;;;;;;24.61;32.96;99620.81;12241130;19;20349;-83
2023/06/14 18:07:47;;;;;;;3.70;2.40;;;;;;;24.49;32.85;99618.81;12235782;19;20015;-83
2023/06/14 18:11:49;;;;;;;4.13;2.38;;;;;;;24.32;33.39;99625.41;12238688;19;20010;-82
2023/06/14 18:15:51;;;;;;;3.75;2.40;;;;;;;24.15;33.79;99628.38;12244705;19;20034;-81
2023/06/14 18:19:53;;;;;;;4.20;2.47;;;;;;;23.83;33.81;99628.00;12238121;19;20027;-83
2023/06/14 18:23:55;;;;;;;3.50;2.13;;;;;;;23.60;34.42;99633.09;12240943;19;20020;-83
2023/06/14 18:27:57;;;;;;;4.45;2.67;;;;;;;23.45;34.80;99628.06;12236540;19;20007;-83
2023/06/14 18:31:59;;;;;;;5.57;2.20;;;;;;;23.26;35.00;99641.72;12244367;19;20006;-82
2023/06/14 18:36:00;;;;;;;3.28;2.28;;;;;;;23.08;35.31;99641.00;12237949;19;20125;-83
2023/06/14 18:40:03;;;;;;;3.45;2.25;;;;;;;22.93;35.81;99639.53;12231322;19;20010;-82
2023/06/14 18:44:06;;;;;;;3.75;2.30;;;;;;;22.78;36.19;99645.72;12229909;19;20009;-83
2023/06/14 18:48:10;;;;;;;4.53;2.53;;;;;;;22.61;36.55;99636.19;12234828;19;20334;-83
2023/06/14 18:52:12;;;;;;;5.28;2.20;;;;;;;22.41;36.89;99642.50;12232658;19;20017;-83
2023/06/14 18:56:16;;;;;;;4.32;2.70;;;;;;;22.26;37.14;99646.66;12236188;19;20355;-82